DLH2CK EDDH-EDDM
Flight info
| Callsign | DLH2CK |
|---|---|
| Flight time | 0h 59m |
| Altitude | 35000 |
| Route | AMLUH2G AMLUH M852 DENIX DCT ZUCKA DCT SODRO T703 LULAR T105 LANDU LANDU2B |
| Aircraft | A21N/M-SDE2E3FGHIRWXY/LB1 |
Departure
| Time | 2026-05-05 18:43 |
|---|---|
| Airport | Hamburg Helmut Schmidt Airport (EDDH) |
Arrival
| Time | 2026-05-05 19:42 |
|---|---|
| Airport | Munich Airport (EDDM) |
| Time | Latitude | Longitude | Altitude | Speed | Heading |
|---|---|---|---|---|---|
| 2026-05-05 18:02 | 53.63168 | 10.00362 | 49 ft | 0 kts | 86° |
| 2026-05-05 18:32 | 53.63166 | 10.00328 | 55 ft | 4 kts | 88° |
| 2026-05-05 18:32 | 53.63166 | 10.00282 | 48 ft | 4 kts | 94° |
| 2026-05-05 18:33 | 53.63171 | 10.00239 | 44 ft | 4 kts | 118° |
| 2026-05-05 18:33 | 53.63184 | 10.00216 | 45 ft | 1 kts | 175° |
| 2026-05-05 18:33 | 53.63185 | 10.00216 | 45 ft | 0 kts | 176° |
| 2026-05-05 18:37 | 53.63182 | 10.00216 | 45 ft | 2 kts | 176° |
| 2026-05-05 18:38 | 53.63150 | 10.00220 | 46 ft | 5 kts | 176° |
| 2026-05-05 18:38 | 53.63104 | 10.00225 | 48 ft | 9 kts | 178° |
| 2026-05-05 18:38 | 53.63040 | 10.00191 | 47 ft | 11 kts | 211° |
| 2026-05-05 18:38 | 53.62963 | 10.00111 | 48 ft | 14 kts | 212° |
| 2026-05-05 18:39 | 53.62902 | 10.00051 | 48 ft | 8 kts | 203° |
| 2026-05-05 18:39 | 53.62857 | 9.99998 | 48 ft | 8 kts | 238° |
| 2026-05-05 18:39 | 53.62848 | 9.99969 | 48 ft | 0 kts | 242° |
| 2026-05-05 18:40 | 53.62848 | 9.99968 | 48 ft | 1 kts | 242° |
| 2026-05-05 18:40 | 53.62836 | 9.99931 | 47 ft | 6 kts | 243° |
| 2026-05-05 18:40 | 53.62815 | 9.99855 | 45 ft | 9 kts | 250° |
| 2026-05-05 18:41 | 53.62843 | 9.99767 | 45 ft | 10 kts | 330° |
| 2026-05-05 18:41 | 53.62868 | 9.99747 | 45 ft | 0 kts | 335° |
| 2026-05-05 18:42 | 53.62873 | 9.99742 | 45 ft | 7 kts | 335° |
| 2026-05-05 18:42 | 53.63126 | 9.99524 | 46 ft | 77 kts | 333° |
| 2026-05-05 18:42 | 53.63802 | 9.98938 | 49 ft | 139 kts | 333° |
| 2026-05-05 18:43 | 53.64807 | 9.98073 | 151 ft | 176 kts | 336° |
| 2026-05-05 18:43 | 53.65901 | 9.97150 | 751 ft | 178 kts | 335° |
| 2026-05-05 18:43 | 53.67030 | 9.96185 | 1432 ft | 184 kts | 337° |
| 2026-05-05 18:43 | 53.68219 | 9.95173 | 1712 ft | 202 kts | 339° |
| 2026-05-05 18:44 | 53.69603 | 9.94662 | 2040 ft | 209 kts | 1° |
| 2026-05-05 18:44 | 53.71056 | 9.94717 | 2675 ft | 209 kts | 2° |
| 2026-05-05 18:44 | 53.72480 | 9.95107 | 3304 ft | 209 kts | 27° |
| 2026-05-05 18:44 | 53.73570 | 9.96698 | 3917 ft | 211 kts | 57° |
| 2026-05-05 18:45 | 53.74010 | 9.99052 | 4535 ft | 213 kts | 83° |
| 2026-05-05 18:45 | 53.74166 | 10.01550 | 5071 ft | 221 kts | 87° |
| 2026-05-05 18:45 | 53.73951 | 10.04143 | 5580 ft | 231 kts | 108° |
| 2026-05-05 18:45 | 53.73179 | 10.06666 | 5889 ft | 251 kts | 124° |
| 2026-05-05 18:46 | 53.72194 | 10.09270 | 6122 ft | 273 kts | 121° |
| 2026-05-05 18:46 | 53.71238 | 10.12096 | 6674 ft | 280 kts | 119° |
| 2026-05-05 18:46 | 53.70287 | 10.15011 | 7251 ft | 286 kts | 119° |
| 2026-05-05 18:46 | 53.69259 | 10.17893 | 7867 ft | 289 kts | 129° |
| 2026-05-05 18:47 | 53.67812 | 10.20240 | 8509 ft | 289 kts | 148° |
| 2026-05-05 18:47 | 53.66653 | 10.21319 | 8962 ft | 288 kts | 160° |
| 2026-05-05 18:47 | 53.64739 | 10.22299 | 9628 ft | 289 kts | 168° |
| 2026-05-05 18:47 | 53.62148 | 10.23463 | 9869 ft | 290 kts | 167° |
| 2026-05-05 18:48 | 53.60827 | 10.24063 | 9926 ft | 297 kts | 167° |
| 2026-05-05 18:48 | 53.58794 | 10.24983 | 10231 ft | 312 kts | 167° |
| 2026-05-05 18:48 | 53.56637 | 10.25956 | 10362 ft | 332 kts | 167° |
| 2026-05-05 18:48 | 53.54337 | 10.26996 | 10477 ft | 350 kts | 166° |
| 2026-05-05 18:49 | 53.51929 | 10.28092 | 10652 ft | 366 kts | 166° |
| 2026-05-05 18:49 | 53.49452 | 10.29227 | 11089 ft | 372 kts | 166° |
| 2026-05-05 18:49 | 53.46949 | 10.30378 | 11619 ft | 375 kts | 166° |
| 2026-05-05 18:49 | 53.44420 | 10.31538 | 12153 ft | 378 kts | 166° |
| 2026-05-05 18:50 | 53.41876 | 10.32701 | 12690 ft | 381 kts | 166° |
| 2026-05-05 18:50 | 53.39322 | 10.33859 | 13203 ft | 384 kts | 166° |
| 2026-05-05 18:50 | 53.36749 | 10.35022 | 13709 ft | 387 kts | 166° |
| 2026-05-05 18:50 | 53.34124 | 10.36203 | 14191 ft | 390 kts | 166° |
| 2026-05-05 18:51 | 53.31504 | 10.37380 | 14662 ft | 393 kts | 166° |
| 2026-05-05 18:51 | 53.28859 | 10.38563 | 15130 ft | 395 kts | 166° |
| 2026-05-05 18:51 | 53.26232 | 10.39736 | 15591 ft | 397 kts | 166° |
| 2026-05-05 18:51 | 53.23546 | 10.40935 | 16060 ft | 399 kts | 166° |
| 2026-05-05 18:52 | 53.20865 | 10.42129 | 16549 ft | 400 kts | 166° |
| 2026-05-05 18:52 | 53.18145 | 10.43339 | 17024 ft | 402 kts | 166° |
| 2026-05-05 18:52 | 53.15472 | 10.44526 | 17442 ft | 404 kts | 166° |
| 2026-05-05 18:52 | 53.12729 | 10.45735 | 17877 ft | 406 kts | 167° |
| 2026-05-05 18:53 | 53.09965 | 10.46798 | 18302 ft | 408 kts | 169° |
| 2026-05-05 18:53 | 53.07163 | 10.47715 | 18666 ft | 410 kts | 171° |
| 2026-05-05 18:53 | 53.04346 | 10.48538 | 19030 ft | 412 kts | 172° |
| 2026-05-05 18:53 | 53.01501 | 10.49340 | 19402 ft | 415 kts | 172° |
| 2026-05-05 18:54 | 52.98650 | 10.50156 | 19783 ft | 416 kts | 171° |
| 2026-05-05 18:54 | 52.95817 | 10.50996 | 20165 ft | 418 kts | 171° |
| 2026-05-05 18:54 | 52.92971 | 10.51862 | 20545 ft | 420 kts | 171° |
| 2026-05-05 18:54 | 52.90073 | 10.52756 | 20925 ft | 422 kts | 171° |
| 2026-05-05 18:55 | 52.87214 | 10.53648 | 21297 ft | 424 kts | 171° |
| 2026-05-05 18:55 | 52.84319 | 10.54552 | 21648 ft | 426 kts | 171° |
| 2026-05-05 18:55 | 52.81374 | 10.55469 | 22013 ft | 428 kts | 172° |
| 2026-05-05 18:55 | 52.78431 | 10.56379 | 22364 ft | 430 kts | 172° |
| 2026-05-05 18:56 | 52.75516 | 10.57274 | 22737 ft | 431 kts | 172° |
| 2026-05-05 18:56 | 52.72567 | 10.58176 | 23102 ft | 432 kts | 172° |
| 2026-05-05 18:56 | 52.69591 | 10.59085 | 23444 ft | 434 kts | 172° |
| 2026-05-05 18:56 | 52.66609 | 10.59996 | 23791 ft | 434 kts | 172° |
| 2026-05-05 18:57 | 52.63630 | 10.60903 | 24112 ft | 435 kts | 172° |
| 2026-05-05 18:57 | 52.60679 | 10.61805 | 24416 ft | 436 kts | 172° |
| 2026-05-05 18:57 | 52.57681 | 10.62723 | 24705 ft | 437 kts | 172° |
| 2026-05-05 18:57 | 52.54707 | 10.63631 | 24997 ft | 439 kts | 172° |
| 2026-05-05 18:58 | 52.51709 | 10.64542 | 25264 ft | 440 kts | 172° |
| 2026-05-05 18:58 | 52.48674 | 10.65459 | 25529 ft | 441 kts | 172° |
| 2026-05-05 18:58 | 52.45659 | 10.66366 | 25792 ft | 443 kts | 172° |
| 2026-05-05 18:58 | 52.42620 | 10.67283 | 26046 ft | 444 kts | 172° |
| 2026-05-05 18:59 | 52.39569 | 10.68208 | 26286 ft | 445 kts | 172° |
| 2026-05-05 18:59 | 52.36510 | 10.69132 | 26519 ft | 446 kts | 172° |
| 2026-05-05 18:59 | 52.33485 | 10.70046 | 26731 ft | 447 kts | 172° |
| 2026-05-05 18:59 | 52.30412 | 10.70970 | 26946 ft | 448 kts | 173° |
| 2026-05-05 19:00 | 52.27320 | 10.71898 | 27239 ft | 447 kts | 172° |
| 2026-05-05 19:00 | 52.24310 | 10.72805 | 27575 ft | 444 kts | 172° |
| 2026-05-05 19:00 | 52.21267 | 10.73723 | 27917 ft | 443 kts | 172° |
| 2026-05-05 19:00 | 52.18244 | 10.74630 | 28238 ft | 441 kts | 172° |
| 2026-05-05 19:01 | 52.15253 | 10.75523 | 28565 ft | 440 kts | 172° |
| 2026-05-05 19:01 | 52.12241 | 10.76417 | 28870 ft | 439 kts | 172° |
| 2026-05-05 19:01 | 52.09228 | 10.77310 | 29173 ft | 438 kts | 172° |
| 2026-05-05 19:01 | 52.06228 | 10.78198 | 29485 ft | 437 kts | 172° |
| 2026-05-05 19:02 | 52.03220 | 10.79092 | 29798 ft | 436 kts | 172° |
| 2026-05-05 19:02 | 52.00293 | 10.79964 | 30118 ft | 433 kts | 172° |
| 2026-05-05 19:02 | 51.97337 | 10.80845 | 30440 ft | 430 kts | 172° |
| 2026-05-05 19:02 | 51.94386 | 10.81724 | 30693 ft | 429 kts | 172° |
| 2026-05-05 19:03 | 51.91443 | 10.82597 | 30950 ft | 428 kts | 172° |
| 2026-05-05 19:03 | 51.88548 | 10.83452 | 31206 ft | 427 kts | 172° |
| 2026-05-05 19:03 | 51.85624 | 10.84310 | 31473 ft | 425 kts | 172° |
| 2026-05-05 19:03 | 51.82712 | 10.85165 | 31725 ft | 424 kts | 172° |
| 2026-05-05 19:04 | 51.79801 | 10.86023 | 31972 ft | 423 kts | 172° |
| 2026-05-05 19:04 | 51.76905 | 10.86875 | 32232 ft | 422 kts | 172° |
| 2026-05-05 19:04 | 51.74058 | 10.87711 | 32554 ft | 419 kts | 172° |
| 2026-05-05 19:04 | 51.71193 | 10.88553 | 32826 ft | 417 kts | 172° |
| 2026-05-05 19:05 | 51.68339 | 10.89489 | 33077 ft | 418 kts | 167° |
| 2026-05-05 19:05 | 51.65576 | 10.91080 | 33332 ft | 420 kts | 158° |
| 2026-05-05 19:05 | 51.62970 | 10.93129 | 33560 ft | 420 kts | 157° |
| 2026-05-05 19:05 | 51.60334 | 10.95223 | 33805 ft | 419 kts | 157° |
| 2026-05-05 19:06 | 51.57721 | 10.97296 | 34009 ft | 419 kts | 157° |
| 2026-05-05 19:06 | 51.55141 | 10.99338 | 34179 ft | 419 kts | 158° |
| 2026-05-05 19:06 | 51.52489 | 11.01427 | 34341 ft | 419 kts | 157° |
| 2026-05-05 19:06 | 51.49879 | 11.03474 | 34564 ft | 417 kts | 157° |
| 2026-05-05 19:07 | 51.47297 | 11.05494 | 34743 ft | 417 kts | 157° |
| 2026-05-05 19:07 | 51.44662 | 11.07552 | 34818 ft | 419 kts | 157° |
| 2026-05-05 19:07 | 51.39446 | 11.11639 | 34825 ft | 421 kts | 157° |
| 2026-05-05 19:08 | 51.34161 | 11.15773 | 34822 ft | 421 kts | 157° |
| 2026-05-05 19:08 | 51.28913 | 11.19866 | 34821 ft | 421 kts | 157° |
| 2026-05-05 19:09 | 51.23611 | 11.23981 | 34816 ft | 421 kts | 157° |
| 2026-05-05 19:09 | 51.18338 | 11.28061 | 34819 ft | 421 kts | 157° |
| 2026-05-05 19:10 | 51.13078 | 11.32114 | 34821 ft | 421 kts | 157° |
| 2026-05-05 19:10 | 51.07805 | 11.36179 | 34825 ft | 422 kts | 157° |
| 2026-05-05 19:11 | 51.02541 | 11.40239 | 34826 ft | 422 kts | 157° |
| 2026-05-05 19:11 | 50.97227 | 11.44318 | 34790 ft | 423 kts | 156° |
| 2026-05-05 19:12 | 50.91948 | 11.48351 | 34789 ft | 424 kts | 156° |
| 2026-05-05 19:12 | 50.86588 | 11.52433 | 34794 ft | 425 kts | 156° |
| 2026-05-05 19:13 | 50.81294 | 11.56469 | 34794 ft | 426 kts | 156° |
| 2026-05-05 19:13 | 50.75939 | 11.60536 | 34805 ft | 426 kts | 156° |
| 2026-05-05 19:14 | 50.70592 | 11.64580 | 34793 ft | 428 kts | 156° |
| 2026-05-05 19:14 | 50.65227 | 11.68628 | 34789 ft | 429 kts | 156° |
| 2026-05-05 19:15 | 50.59831 | 11.72696 | 34783 ft | 429 kts | 156° |
| 2026-05-05 19:15 | 50.54418 | 11.76761 | 34806 ft | 430 kts | 156° |
| 2026-05-05 19:16 | 50.49755 | 11.80261 | 34819 ft | 430 kts | 156° |
| 2026-05-05 19:16 | 50.44334 | 11.84273 | 34837 ft | 431 kts | 158° |
| 2026-05-05 19:17 | 50.38878 | 11.87996 | 34420 ft | 430 kts | 158° |
| 2026-05-05 19:17 | 50.36102 | 11.89827 | 34098 ft | 429 kts | 158° |
| 2026-05-05 19:17 | 50.33351 | 11.91639 | 33784 ft | 430 kts | 158° |
| 2026-05-05 19:18 | 50.30632 | 11.93440 | 33427 ft | 430 kts | 158° |
| 2026-05-05 19:18 | 50.27864 | 11.95292 | 33071 ft | 431 kts | 158° |
| 2026-05-05 19:18 | 50.25129 | 11.97137 | 32720 ft | 432 kts | 157° |
| 2026-05-05 19:18 | 50.22332 | 11.99029 | 32378 ft | 433 kts | 157° |
| 2026-05-05 19:19 | 50.19580 | 12.00888 | 32005 ft | 434 kts | 158° |
| 2026-05-05 19:19 | 50.16804 | 12.02756 | 31664 ft | 435 kts | 158° |
| 2026-05-05 19:19 | 50.14014 | 12.04630 | 31316 ft | 436 kts | 158° |
| 2026-05-05 19:19 | 50.11261 | 12.06474 | 30961 ft | 437 kts | 158° |
| 2026-05-05 19:20 | 50.08460 | 12.08342 | 30607 ft | 437 kts | 158° |
| 2026-05-05 19:20 | 50.05648 | 12.10212 | 30273 ft | 438 kts | 158° |
| 2026-05-05 19:20 | 50.02829 | 12.12084 | 29914 ft | 439 kts | 158° |
| 2026-05-05 19:20 | 50.00049 | 12.13936 | 29530 ft | 438 kts | 158° |
| 2026-05-05 19:21 | 49.97255 | 12.15802 | 29156 ft | 437 kts | 158° |
| 2026-05-05 19:21 | 49.94431 | 12.17686 | 28742 ft | 438 kts | 158° |
| 2026-05-05 19:21 | 49.91618 | 12.19383 | 28336 ft | 437 kts | 165° |
| 2026-05-05 19:21 | 49.88613 | 12.20124 | 27408 ft | 436 kts | 176° |
| 2026-05-05 19:22 | 49.85569 | 12.20346 | 26276 ft | 441 kts | 177° |
| 2026-05-05 19:22 | 49.82506 | 12.20519 | 25156 ft | 445 kts | 178° |
| 2026-05-05 19:22 | 49.79379 | 12.20672 | 24123 ft | 448 kts | 178° |
| 2026-05-05 19:22 | 49.76315 | 12.20817 | 23385 ft | 444 kts | 178° |
| 2026-05-05 19:23 | 49.73240 | 12.20967 | 22502 ft | 441 kts | 178° |
| 2026-05-05 19:23 | 49.70161 | 12.21127 | 21704 ft | 436 kts | 178° |
| 2026-05-05 19:23 | 49.67144 | 12.21299 | 20950 ft | 431 kts | 178° |
| 2026-05-05 19:23 | 49.64208 | 12.21472 | 20213 ft | 425 kts | 178° |
| 2026-05-05 19:24 | 49.61258 | 12.21647 | 19453 ft | 420 kts | 178° |
| 2026-05-05 19:24 | 49.58351 | 12.21820 | 18701 ft | 416 kts | 178° |
| 2026-05-05 19:24 | 49.55458 | 12.21991 | 17917 ft | 413 kts | 179° |
| 2026-05-05 19:24 | 49.52595 | 12.22159 | 17099 ft | 409 kts | 179° |
| 2026-05-05 19:25 | 49.49766 | 12.22322 | 16347 ft | 404 kts | 179° |
| 2026-05-05 19:25 | 49.46992 | 12.22478 | 15911 ft | 401 kts | 179° |
| 2026-05-05 19:25 | 49.44201 | 12.22633 | 15771 ft | 401 kts | 179° |
| 2026-05-05 19:25 | 49.41400 | 12.22789 | 15797 ft | 402 kts | 179° |
| 2026-05-05 19:26 | 49.38601 | 12.22948 | 15800 ft | 402 kts | 179° |
| 2026-05-05 19:26 | 49.35796 | 12.23107 | 15803 ft | 402 kts | 179° |
| 2026-05-05 19:26 | 49.33030 | 12.23265 | 15805 ft | 402 kts | 179° |
| 2026-05-05 19:26 | 49.30299 | 12.23421 | 15804 ft | 403 kts | 179° |
| 2026-05-05 19:27 | 49.28449 | 12.23527 | 15815 ft | 403 kts | 179° |
| 2026-05-05 19:27 | 49.25627 | 12.23689 | 15612 ft | 399 kts | 179° |
| 2026-05-05 19:27 | 49.22905 | 12.23846 | 14880 ft | 395 kts | 180° |
| 2026-05-05 19:27 | 49.20169 | 12.24004 | 14180 ft | 391 kts | 180° |
| 2026-05-05 19:28 | 49.17463 | 12.24158 | 13492 ft | 387 kts | 180° |
| 2026-05-05 19:28 | 49.14801 | 12.24308 | 12714 ft | 383 kts | 180° |
| 2026-05-05 19:28 | 49.12153 | 12.24460 | 11965 ft | 379 kts | 180° |
| 2026-05-05 19:28 | 49.09529 | 12.24612 | 11248 ft | 375 kts | 180° |
| 2026-05-05 19:29 | 49.06935 | 12.24758 | 10909 ft | 376 kts | 180° |
| 2026-05-05 19:29 | 49.04314 | 12.24902 | 10795 ft | 377 kts | 181° |
| 2026-05-05 19:29 | 49.01688 | 12.25045 | 10817 ft | 378 kts | 180° |
| 2026-05-05 19:29 | 48.99083 | 12.25187 | 10819 ft | 378 kts | 181° |
| 2026-05-05 19:30 | 48.96447 | 12.25335 | 10820 ft | 378 kts | 180° |
| 2026-05-05 19:30 | 48.93798 | 12.25487 | 10824 ft | 378 kts | 180° |
| 2026-05-05 19:30 | 48.91177 | 12.25635 | 10824 ft | 378 kts | 180° |
| 2026-05-05 19:30 | 48.88586 | 12.25780 | 10824 ft | 378 kts | 180° |
| 2026-05-05 19:31 | 48.85943 | 12.25929 | 10821 ft | 378 kts | 180° |
| 2026-05-05 19:31 | 48.83366 | 12.26077 | 10809 ft | 354 kts | 180° |
| 2026-05-05 19:31 | 48.81054 | 12.26217 | 10818 ft | 314 kts | 181° |
| 2026-05-05 19:31 | 48.78913 | 12.26358 | 10824 ft | 309 kts | 180° |
| 2026-05-05 19:32 | 48.76704 | 12.26495 | 10827 ft | 333 kts | 181° |
| 2026-05-05 19:32 | 48.74297 | 12.26633 | 10780 ft | 353 kts | 180° |
| 2026-05-05 19:32 | 48.71835 | 12.26770 | 10361 ft | 350 kts | 181° |
| 2026-05-05 19:32 | 48.69446 | 12.26910 | 10039 ft | 338 kts | 180° |
| 2026-05-05 19:33 | 48.67138 | 12.27048 | 9524 ft | 333 kts | 181° |
| 2026-05-05 19:33 | 48.64822 | 12.27192 | 8886 ft | 331 kts | 180° |
| 2026-05-05 19:33 | 48.62529 | 12.27312 | 8267 ft | 329 kts | 180° |
| 2026-05-05 19:33 | 48.60234 | 12.27414 | 7634 ft | 328 kts | 180° |
| 2026-05-05 19:34 | 48.57949 | 12.27517 | 7026 ft | 327 kts | 180° |
| 2026-05-05 19:34 | 48.55699 | 12.27618 | 6454 ft | 326 kts | 180° |
| 2026-05-05 19:34 | 48.53433 | 12.27542 | 5850 ft | 323 kts | 191° |
| 2026-05-05 19:35 | 48.49876 | 12.26462 | 5384 ft | 304 kts | 194° |
| 2026-05-05 19:35 | 48.47811 | 12.25804 | 4952 ft | 301 kts | 195° |
| 2026-05-05 19:35 | 48.45091 | 12.24958 | 4316 ft | 300 kts | 195° |
| 2026-05-05 19:35 | 48.43153 | 12.23925 | 4007 ft | 292 kts | 216° |
| 2026-05-05 19:36 | 48.42134 | 12.22616 | 3988 ft | 277 kts | 231° |
| 2026-05-05 19:36 | 48.40946 | 12.20491 | 3994 ft | 261 kts | 234° |
| 2026-05-05 19:36 | 48.39818 | 12.18371 | 4002 ft | 259 kts | 234° |
| 2026-05-05 19:36 | 48.38694 | 12.16241 | 4006 ft | 259 kts | 234° |
| 2026-05-05 19:37 | 48.37591 | 12.14133 | 4003 ft | 258 kts | 237° |
| 2026-05-05 19:37 | 48.36846 | 12.11713 | 4009 ft | 250 kts | 260° |
| 2026-05-05 19:37 | 48.36625 | 12.09194 | 4005 ft | 233 kts | 265° |
| 2026-05-05 19:37 | 48.36458 | 12.06861 | 4019 ft | 216 kts | 265° |
| 2026-05-05 19:38 | 48.36302 | 12.04722 | 4011 ft | 203 kts | 265° |
| 2026-05-05 19:38 | 48.36151 | 12.02697 | 4016 ft | 186 kts | 265° |
| 2026-05-05 19:38 | 48.36011 | 12.00805 | 4011 ft | 177 kts | 265° |
| 2026-05-05 19:38 | 48.35878 | 11.99028 | 3875 ft | 170 kts | 265° |
| 2026-05-05 19:39 | 48.35748 | 11.97276 | 3675 ft | 167 kts | 265° |
| 2026-05-05 19:39 | 48.35618 | 11.95547 | 3465 ft | 163 kts | 265° |
| 2026-05-05 19:39 | 48.35498 | 11.93946 | 3263 ft | 151 kts | 265° |
| 2026-05-05 19:39 | 48.35382 | 11.92402 | 3069 ft | 147 kts | 265° |
| 2026-05-05 19:40 | 48.35267 | 11.90892 | 2864 ft | 145 kts | 264° |
| 2026-05-05 19:40 | 48.35153 | 11.89386 | 2695 ft | 144 kts | 265° |
| 2026-05-05 19:40 | 48.35043 | 11.87909 | 2520 ft | 142 kts | 264° |
| 2026-05-05 19:40 | 48.34933 | 11.86429 | 2305 ft | 146 kts | 264° |
| 2026-05-05 19:41 | 48.34816 | 11.84916 | 2105 ft | 146 kts | 265° |
| 2026-05-05 19:41 | 48.34699 | 11.83404 | 1892 ft | 145 kts | 263° |
| 2026-05-05 19:41 | 48.34587 | 11.81874 | 1714 ft | 148 kts | 264° |
| 2026-05-05 19:41 | 48.34471 | 11.80343 | 1525 ft | 147 kts | 264° |
| 2026-05-05 19:42 | 48.34365 | 11.78935 | 1485 ft | 120 kts | 263° |
| 2026-05-05 19:42 | 48.34286 | 11.77934 | 1485 ft | 70 kts | 263° |
| 2026-05-05 19:42 | 48.34250 | 11.77430 | 1479 ft | 32 kts | 267° |
| 2026-05-05 19:42 | 48.34285 | 11.77159 | 1479 ft | 25 kts | 297° |
| 2026-05-05 19:43 | 48.34357 | 11.76919 | 1478 ft | 25 kts | 292° |
| 2026-05-05 19:43 | 48.34395 | 11.76782 | 1476 ft | 0 kts | 293° |
| 2026-05-05 19:43 | 48.34395 | 11.76781 | 1476 ft | 1 kts | 293° |
| 2026-05-05 19:44 | 48.34399 | 11.76767 | 1481 ft | 3 kts | 293° |
| 2026-05-05 19:44 | 48.34420 | 11.76726 | 1475 ft | 8 kts | 316° |
| 2026-05-05 19:44 | 48.34494 | 11.76699 | 1475 ft | 14 kts | 353° |
| 2026-05-05 19:44 | 48.34575 | 11.76756 | 1479 ft | 15 kts | 74° |
| 2026-05-05 19:45 | 48.34587 | 11.76913 | 1478 ft | 16 kts | 83° |
| 2026-05-05 19:45 | 48.34601 | 11.77081 | 1485 ft | 17 kts | 83° |
| 2026-05-05 19:45 | 48.34616 | 11.77264 | 1482 ft | 18 kts | 83° |
| 2026-05-05 19:45 | 48.34622 | 11.77361 | 1475 ft | 10 kts | 85° |
| 2026-05-05 19:46 | 48.34631 | 11.77488 | 1483 ft | 14 kts | 83° |
| 2026-05-05 19:46 | 48.34642 | 11.77638 | 1485 ft | 15 kts | 83° |
| 2026-05-05 19:46 | 48.34656 | 11.77811 | 1481 ft | 18 kts | 83° |
| 2026-05-05 19:46 | 48.34672 | 11.78011 | 1485 ft | 20 kts | 83° |
| 2026-05-05 19:47 | 48.34688 | 11.78223 | 1485 ft | 21 kts | 83° |
| 2026-05-05 19:47 | 48.34706 | 11.78448 | 1485 ft | 22 kts | 83° |
| 2026-05-05 19:47 | 48.34725 | 11.78683 | 1472 ft | 23 kts | 83° |
| 2026-05-05 19:47 | 48.34743 | 11.78929 | 1485 ft | 24 kts | 83° |
| 2026-05-05 19:48 | 48.34762 | 11.79183 | 1485 ft | 25 kts | 84° |
| 2026-05-05 19:48 | 48.34775 | 11.79356 | 1478 ft | 24 kts | 83° |
| 2026-05-05 19:48 | 48.34784 | 11.79468 | 1474 ft | 0 kts | 83° |
| 2026-05-05 19:48 | 48.34784 | 11.79469 | 1474 ft | 0 kts | 83° |
| 2026-05-05 19:49 | 48.34786 | 11.79495 | 1479 ft | 4 kts | 81° |
| 2026-05-05 19:49 | 48.34796 | 11.79534 | 1479 ft | 2 kts | 62° |
| 2026-05-05 19:49 | 48.34814 | 11.79556 | 1480 ft | 5 kts | 23° |
| 2026-05-05 19:49 | 48.34861 | 11.79556 | 1480 ft | 11 kts | 354° |
| 2026-05-05 19:50 | 48.34870 | 11.79553 | 1475 ft | 0 kts | 346° |
| 2026-05-05 19:52 | 48.35098 | 11.79605 | 1486 ft | 0 kts | 346° |
| 2026-05-05 19:52 | 48.35113 | 11.79616 | 1476 ft | 5 kts | 49° |
| 2026-05-05 19:53 | 48.35127 | 11.79637 | 1471 ft | 4 kts | 37° |
| 2026-05-05 19:53 | 48.35162 | 11.79643 | 1477 ft | 6 kts | 358° |
| 2026-05-05 19:53 | 48.35199 | 11.79669 | 1481 ft | 6 kts | 53° |
| 2026-05-05 19:53 | 48.35202 | 11.79687 | 1483 ft | 1 kts | 82° |
| 2026-05-05 19:54 | 48.35203 | 11.79706 | 1477 ft | 2 kts | 85° |
| 2026-05-05 19:54 | 48.35204 | 11.79725 | 1473 ft | 1 kts | 84° |
| 2026-05-05 19:54 | 48.35205 | 11.79733 | 1476 ft | 1 kts | 82° |
| 2026-05-05 19:54 | 48.35206 | 11.79749 | 1485 ft | 1 kts | 81° |
| 2026-05-05 19:55 | 48.35208 | 11.79763 | 1485 ft | 2 kts | 82° |
| 2026-05-05 19:55 | 48.35209 | 11.79778 | 1485 ft | 1 kts | 82° |
| 2026-05-05 19:55 | 48.35209 | 11.79779 | 1485 ft | 0 kts | 82° |
| 2026-05-05 19:55 | 48.35209 | 11.79780 | 1485 ft | 0 kts | 82° |
| 2026-05-05 19:56 | 48.35209 | 11.79781 | 1485 ft | 0 kts | 82° |